Time;durP1;ratioP1;P1;durP2;ratioP2;P2;SDS_P1;SDS_P2;PMS_P1;PMS_P2;Temp;Humidity;BMP_temperature;BMP_pressure;BME280_temperature;BME280_humidity;BME280_pressure;Samples;Min_cycle;Max_cycle;Signal;HPM_P1;HPM_P2
2023/03/21 00:01:33;;;;;;;2.27;1.47;;;;;;;8.01;100.00;96839.09;5072182;28;20219;-56
2023/03/21 00:03:59;;;;;;;2.43;1.40;;;;;;;8.02;100.00;96829.41;5071240;28;20194;-58
2023/03/21 00:06:26;;;;;;;3.33;1.40;;;;;;;7.88;100.00;96827.88;5070219;28;20698;-55
2023/03/21 00:08:52;;;;;;;2.53;1.53;;;;;;;7.79;100.00;96831.25;5070240;28;20195;-55
2023/03/21 00:11:20;;;;;;;1.73;1.53;;;;;;;7.69;100.00;96832.91;5070528;28;20222;-54
2023/03/21 00:13:48;;;;;;;1.53;1.43;;;;;;;7.78;100.00;96826.09;5071230;28;20321;-54
2023/03/21 00:16:16;;;;;;;2.50;1.50;;;;;;;7.78;100.00;96826.94;5071135;28;20218;-54
2023/03/21 00:18:45;;;;;;;2.03;1.60;;;;;;;7.89;100.00;96820.81;5070274;28;20574;-55
2023/03/21 00:21:14;;;;;;;1.63;1.53;;;;;;;7.97;100.00;96824.50;5071114;28;20229;-54
2023/03/21 00:23:41;;;;;;;3.57;1.70;;;;;;;7.96;100.00;96824.63;5071105;28;20221;-54
2023/03/21 00:26:08;;;;;;;2.87;1.33;;;;;;;7.80;100.00;96819.75;5070667;28;20847;-55
2023/03/21 00:28:36;;;;;;;1.83;1.70;;;;;;;7.78;100.00;96820.84;5070956;28;20209;-54
2023/03/21 00:31:04;;;;;;;3.03;1.60;;;;;;;7.67;100.00;96821.69;5070983;28;20199;-55
2023/03/21 00:33:31;;;;;;;2.70;1.50;;;;;;;7.48;100.00;96813.53;5070305;28;20287;-54
2023/03/21 00:36:06;;;;;;;1.93;1.70;;;;;;;7.72;100.00;96808.16;5071273;28;20218;-55
2023/03/21 00:38:33;;;;;;;1.83;1.50;;;;;;;7.73;100.00;96805.41;5070009;28;20209;-53
2023/03/21 00:40:59;;;;;;;2.23;1.40;;;;;;;7.55;100.00;96804.22;5070041;28;20233;-53
2023/03/21 00:43:29;;;;;;;2.83;1.97;;;;;;;7.67;100.00;96797.16;5071162;28;20555;-54
2023/03/21 00:45:56;;;;;;;3.53;2.23;;;;;;;7.60;100.00;96801.22;5070282;28;20194;-54
2023/03/21 00:48:25;;;;;;;2.13;1.93;;;;;;;7.64;100.00;96805.28;5070851;28;20209;-54
2023/03/21 00:50:55;;;;;;;2.00;1.90;;;;;;;7.55;100.00;96806.84;5069935;28;20222;-55
2023/03/21 00:53:23;;;;;;;2.03;1.93;;;;;;;7.39;100.00;96806.38;5070589;28;20210;-54
2023/03/21 00:55:50;;;;;;;4.37;2.00;;;;;;;7.40;100.00;96800.97;5070607;28;20230;-54
2023/03/21 00:58:17;;;;;;;1.90;1.80;;;;;;;7.49;100.00;96804.69;5071039;28;20536;-55
2023/03/21 01:00:45;;;;;;;2.80;1.90;;;;;;;7.57;100.00;96806.75;5071324;28;20276;-55
2023/03/21 01:16:14;;;;;;;2.40;2.20;;;;;;;7.63;100.00;96796.56;5032700;28;20253;-56
2023/03/21 01:18:41;;;;;;;2.30;2.20;;;;;;;7.54;100.00;96789.41;5042632;28;20299;-54
2023/03/21 01:21:11;;;;;;;2.73;2.47;;;;;;;7.49;100.00;96791.53;5042392;28;20232;-56
2023/03/21 01:23:40;;;;;;;2.07;1.87;;;;;;;7.55;100.00;96788.41;5041968;28;20600;-55
2023/03/21 01:26:07;;;;;;;2.20;2.10;;;;;;;7.48;100.00;96787.22;5042338;28;20334;-55
2023/03/21 01:28:35;;;;;;;2.07;1.90;;;;;;;7.57;100.00;96781.25;5045626;28;20207;-56
2023/03/21 01:31:02;;;;;;;2.70;1.77;;;;;;;7.70;100.00;96774.06;5049945;28;20228;-54
2023/03/21 01:33:30;;;;;;;2.43;2.23;;;;;;;7.61;100.00;96777.44;5057632;28;20221;-56
2023/03/21 01:35:59;;;;;;;2.73;2.20;;;;;;;7.43;100.00;96784.16;5042213;28;20226;-55
2023/03/21 01:38:25;;;;;;;4.23;2.37;;;;;;;7.27;100.00;96781.00;5041857;28;20203;-56
2023/03/21 01:40:54;;;;;;;1.97;1.80;;;;;;;7.30;100.00;96778.97;5042002;28;20273;-59
2023/03/21 01:43:25;;;;;;;1.90;1.80;;;;;;;7.16;100.00;96778.38;5041303;28;20207;-55
2023/03/21 01:46:20;;;;;;;2.40;2.07;;;;;;;7.40;100.00;96773.88;5042529;28;20547;-56
2023/03/21 01:48:52;;;;;;;2.13;2.03;;;;;;;7.42;100.00;96772.78;5042155;28;20277;-56
2023/03/21 01:51:19;;;;;;;2.57;2.10;;;;;;;7.60;100.00;96773.13;5042957;28;20390;-56
2023/03/21 01:53:46;;;;;;;3.53;2.30;;;;;;;7.51;100.00;96769.41;5041182;28;20642;-55
2023/03/21 01:56:17;;;;;;;2.97;2.50;;;;;;;7.33;100.00;96772.66;5041069;28;20207;-56
2023/03/21 01:58:44;;;;;;;2.70;2.30;;;;;;;7.21;100.00;96773.63;5041356;28;20207;-54
2023/03/21 02:01:11;;;;;;;2.13;2.00;;;;;;;7.16;100.00;96775.75;5040746;28;20231;-56
2023/03/21 02:03:49;;;;;;;2.40;2.20;;;;;;;7.18;100.00;96768.59;5041336;28;20234;-54
2023/03/21 02:06:22;;;;;;;3.60;2.33;;;;;;;7.30;100.00;96762.38;5041316;28;20207;-55
2023/03/21 02:08:51;;;;;;;2.20;2.00;;;;;;;7.18;100.00;96769.44;5041398;28;20210;-54
2023/03/21 02:11:18;;;;;;;3.47;1.70;;;;;;;7.40;100.00;96768.59;5041303;28;20203;-54
2023/03/21 02:13:44;;;;;;;2.30;2.00;;;;;;;7.25;100.00;96769.78;5041742;28;20286;-54
2023/03/21 02:16:15;;;;;;;1.83;1.57;;;;;;;7.28;100.00;96764.28;5041014;28;20231;-54
2023/03/21 02:18:46;;;;;;;2.70;2.00;;;;;;;7.43;100.00;96760.47;5041355;28;20203;-55
2023/03/21 02:21:52;;;;;;;2.00;1.83;;;;;;;7.35;100.00;96752.31;5040531;28;20326;-54
2023/03/21 02:24:37;;;;;;;1.73;1.60;;;;;;;7.48;100.00;96750.41;5026510;28;20210;-55
2023/03/21 02:27:12;;;;;;;3.00;1.73;;;;;;;7.43;100.00;96752.56;5060095;28;20202;-55
2023/03/21 02:30:06;;;;;;;2.00;1.90;;;;;;;7.44;100.00;96754.22;5058271;28;21343;-54
2023/03/21 02:32:41;;;;;;;2.43;1.87;;;;;;;7.43;100.00;96745.53;5042036;28;20200;-54
2023/03/21 02:35:23;;;;;;;2.20;2.10;;;;;;;7.35;100.00;96742.66;5041353;28;20199;-54
2023/03/21 02:37:53;;;;;;;3.70;2.03;;;;;;;7.24;100.00;96742.66;5040798;28;20218;-55
2023/03/21 02:40:23;;;;;;;1.80;1.70;;;;;;;7.27;100.00;96746.81;5041409;28;20236;-55
2023/03/21 02:42:57;;;;;;;1.67;1.57;;;;;;;7.21;100.00;96742.06;5050244;28;20207;-56
2023/03/21 02:45:27;;;;;;;1.73;1.63;;;;;;;7.11;100.00;96746.34;5064535;28;20210;-55
2023/03/21 02:47:57;;;;;;;2.00;1.80;;;;;;;6.93;100.00;96753.88;5066199;28;20259;-54
2023/03/21 02:50:29;;;;;;;2.43;1.83;;;;;;;6.88;100.00;96745.50;5040504;28;20191;-54
2023/03/21 02:52:58;;;;;;;1.67;1.57;;;;;;;7.03;100.00;96751.38;5041344;28;20571;-56
2023/03/21 02:55:31;;;;;;;2.70;1.67;;;;;;;7.22;100.00;96752.47;5041365;28;20207;-54
2023/03/21 02:57:58;;;;;;;1.63;1.53;;;;;;;7.14;100.00;96757.47;5042208;28;20212;-56
2023/03/21 03:00:27;;;;;;;1.90;1.43;;;;;;;7.20;100.00;96750.88;5058844;28;20204;-54
2023/03/21 03:02:54;;;;;;;2.27;1.60;;;;;;;7.04;100.00;96746.00;5055982;28;20253;-61
2023/03/21 03:05:23;;;;;;;2.43;2.07;;;;;;;7.01;100.00;96751.50;5048713;28;20208;-56
2023/03/21 03:08:06;;;;;;;1.90;1.80;;;;;;;6.96;100.00;96743.97;5048167;28;20707;-56
2023/03/21 03:10:39;;;;;;;2.60;2.00;;;;;;;6.97;100.00;96748.28;5049915;28;20214;-56
2023/03/21 03:13:16;;;;;;;1.80;1.70;;;;;;;7.06;100.00;96748.50;5046339;28;20195;-56
2023/03/21 03:15:50;;;;;;;2.40;2.20;;;;;;;7.14;100.00;96746.13;5047616;28;20200;-55
2023/03/21 03:18:21;;;;;;;2.63;1.60;;;;;;;7.22;100.00;96746.38;5053457;28;20339;-54
2023/03/21 03:20:55;;;;;;;2.13;1.70;;;;;;;7.20;100.00;96748.25;5066915;28;20206;-55
2023/03/21 03:23:30;;;;;;;2.07;1.97;;;;;;;7.10;100.00;96748.16;5069776;28;20202;-56
2023/03/21 03:26:00;;;;;;;2.60;2.17;;;;;;;7.15;100.00;96745.16;5064626;28;20233;-56
2023/03/21 03:28:31;;;;;;;2.00;1.90;;;;;;;7.01;100.00;96741.78;5043860;28;20264;-56
2023/03/21 03:31:03;;;;;;;2.53;2.10;;;;;;;6.83;100.00;96738.00;5026589;28;20707;-55
2023/03/21 03:33:30;;;;;;;2.20;2.00;;;;;;;6.70;100.00;96739.84;5044727;28;20290;-54
2023/03/21 03:35:58;;;;;;;1.80;1.70;;;;;;;6.87;100.00;96743.84;5043303;28;20257;-53
2023/03/21 03:38:27;;;;;;;2.73;1.63;;;;;;;6.87;100.00;96739.41;5043745;28;20265;-55
2023/03/21 03:40:59;;;;;;;1.47;1.47;;;;;;;6.98;100.00;96742.03;5043789;28;20207;-54
2023/03/21 03:43:30;;;;;;;3.60;1.77;;;;;;;6.98;100.00;96746.47;5043626;28;20196;-54
2023/03/21 03:46:00;;;;;;;2.00;1.80;;;;;;;7.13;100.00;96747.91;5043647;28;20203;-53
2023/03/21 03:48:44;;;;;;;4.63;2.03;;;;;;;6.93;100.00;96746.00;5043872;28;20214;-53
2023/03/21 03:51:15;;;;;;;2.10;2.00;;;;;;;6.79;100.00;96741.81;5070392;28;20199;-56
2023/03/21 03:53:45;;;;;;;2.03;1.90;;;;;;;6.71;100.00;96738.91;5069107;28;20203;-55
2023/03/21 03:56:12;;;;;;;3.10;2.10;;;;;;;6.62;100.00;96744.03;5068347;28;20188;-55
2023/03/21 03:58:39;;;;;;;3.00;2.23;;;;;;;6.56;100.00;96744.47;5066241;28;20216;-55
2023/03/21 04:01:07;;;;;;;2.50;2.30;;;;;;;6.30;100.00;96752.56;5044267;28;20207;-55
2023/03/21 04:03:36;;;;;;;2.30;2.20;;;;;;;6.48;100.00;96747.72;5051120;28;20532;-55
2023/03/21 04:06:05;;;;;;;2.60;2.40;;;;;;;6.61;100.00;96745.81;5052220;28;20208;-56
2023/03/21 04:08:36;;;;;;;2.10;1.90;;;;;;;6.71;100.00;96740.69;5043689;28;20218;-55
2023/03/21 04:11:08;;;;;;;2.13;2.00;;;;;;;6.70;100.00;96747.75;5042955;28;20207;-55
2023/03/21 04:13:34;;;;;;;2.60;2.23;;;;;;;6.86;100.00;96742.16;5026636;28;20214;-56
2023/03/21 04:16:01;;;;;;;2.63;2.43;;;;;;;6.64;100.00;96736.88;5042556;28;20206;-56
2023/03/21 04:18:28;;;;;;;2.40;2.30;;;;;;;6.77;100.00;96738.44;5042334;28;20223;-55
2023/03/21 04:20:55;;;;;;;2.03;1.93;;;;;;;6.88;100.00;96738.44;5043329;28;20280;-56
2023/03/21 04:23:25;;;;;;;2.13;1.90;;;;;;;6.86;100.00;96734.28;5042240;28;20795;-55
2023/03/21 04:25:57;;;;;;;4.07;2.30;;;;;;;6.86;100.00;96743.00;5044331;28;20281;-56
2023/03/21 04:28:27;;;;;;;2.30;1.97;;;;;;;6.83;100.00;96739.78;5042573;28;20210;-54
2023/03/21 04:30:56;;;;;;;3.80;2.50;;;;;;;6.50;100.00;96743.16;5043548;28;20199;-54
2023/03/21 04:33:25;;;;;;;4.47;2.70;;;;;;;6.35;100.00;96742.53;5042374;28;20214;-55
2023/03/21 04:35:54;;;;;;;2.50;2.30;;;;;;;6.51;100.00;96750.09;5043182;28;20196;-55
2023/03/21 04:38:22;;;;;;;2.60;2.40;;;;;;;6.33;100.00;96743.59;5042371;28;20195;-54
2023/03/21 04:40:48;;;;;;;2.53;2.33;;;;;;;6.29;100.00;96736.91;5047076;28;20203;-56
2023/03/21 04:43:16;;;;;;;3.07;2.47;;;;;;;6.33;100.00;96743.59;5043039;28;20234;-56
2023/03/21 04:45:46;;;;;;;2.40;2.20;;;;;;;6.56;100.00;96745.31;5042670;28;20214;-55
2023/03/21 04:48:16;;;;;;;2.90;2.70;;;;;;;6.63;100.00;96743.91;5042877;28;20229;-54
2023/03/21 04:50:45;;;;;;;2.47;2.37;;;;;;;6.71;100.00;96741.53;5041697;28;20196;-55
2023/03/21 04:53:13;;;;;;;2.93;2.53;;;;;;;6.57;100.00;96741.75;5042441;28;20203;-55
2023/03/21 04:55:40;;;;;;;3.23;3.00;;;;;;;6.40;100.00;96740.41;5051045;28;20212;-56
2023/03/21 04:58:07;;;;;;;2.50;2.40;;;;;;;6.41;100.00;96742.06;5054495;28;20236;-55
2023/03/21 05:00:37;;;;;;;3.00;2.47;;;;;;;6.46;100.00;96734.69;5055642;28;20214;-55
2023/03/21 05:03:07;;;;;;;2.93;2.60;;;;;;;6.47;100.00;96728.47;5045782;28;20231;-54
2023/03/21 05:05:36;;;;;;;2.83;2.63;;;;;;;6.54;100.00;96731.47;5041969;28;20219;-55
2023/03/21 05:08:06;;;;;;;3.00;2.80;;;;;;;6.45;100.00;96732.16;5042536;28;20203;-55
2023/03/21 05:10:32;;;;;;;3.40;2.80;;;;;;;6.44;100.00;96728.72;5024149;28;20700;-56
2023/03/21 05:13:04;;;;;;;2.67;2.53;;;;;;;6.51;100.00;96726.47;5043530;28;20206;-56
2023/03/21 05:15:31;;;;;;;3.33;3.00;;;;;;;6.62;100.00;96728.28;5042140;28;20276;-55
2023/03/21 05:18:09;;;;;;;3.20;2.90;;;;;;;6.55;100.00;96727.91;5042288;28;20230;-55
2023/03/21 05:20:42;;;;;;;4.23;3.00;;;;;;;6.55;100.00;96722.66;5041622;28;20210;-54
2023/03/21 05:23:09;;;;;;;4.10;3.20;;;;;;;6.60;100.00;96725.75;5042520;28;20247;-56
2023/03/21 05:25:36;;;;;;;5.13;4.63;;;;;;;6.57;100.00;96726.00;5042884;28;20828;-57
2023/03/21 05:28:04;;;;;;;3.10;2.90;;;;;;;6.54;100.00;96733.25;5044580;28;20204;-56
2023/03/21 05:30:32;;;;;;;3.07;2.77;;;;;;;6.33;100.00;96733.09;5043206;28;20274;-55
2023/03/21 05:32:59;;;;;;;3.07;2.83;;;;;;;6.12;100.00;96732.06;5043524;28;20196;-55
2023/03/21 05:35:26;;;;;;;3.40;3.10;;;;;;;6.37;100.00;96737.16;5042076;28;20212;-56
2023/03/21 05:37:54;;;;;;;2.93;2.73;;;;;;;6.38;100.00;96733.56;5041930;28;20283;-55
2023/03/21 05:40:21;;;;;;;3.17;2.97;;;;;;;6.34;100.00;96734.78;5041440;28;20206;-55
2023/03/21 05:42:48;;;;;;;3.53;3.23;;;;;;;6.08;100.00;96735.88;5041483;28;20270;-56
2023/03/21 05:45:15;;;;;;;3.93;3.53;;;;;;;6.02;100.00;96736.31;5041926;28;20216;-56
2023/03/21 05:47:42;;;;;;;3.57;3.27;;;;;;;6.12;100.00;96734.69;5041998;28;21082;-56
2023/03/21 05:50:13;;;;;;;3.83;3.50;;;;;;;6.10;100.00;96741.81;5041664;28;20639;-56
2023/03/21 05:52:40;;;;;;;3.67;3.37;;;;;;;6.08;100.00;96743.75;5041936;28;21140;-56
2023/03/21 05:55:08;;;;;;;4.33;3.93;;;;;;;5.91;100.00;96743.22;5042131;28;20294;-55
2023/03/21 05:57:38;;;;;;;3.97;3.67;;;;;;;6.02;100.00;96741.56;5041902;28;20199;-56
2023/03/21 06:00:08;;;;;;;4.57;4.00;;;;;;;6.09;100.00;96742.81;5042146;28;20215;-54
2023/03/21 06:02:37;;;;;;;7.13;4.03;;;;;;;6.14;100.00;96745.91;5031320;28;20285;-53
2023/03/21 06:05:05;;;;;;;4.60;4.20;;;;;;;6.37;100.00;96747.69;5041261;28;20230;-56
2023/03/21 06:07:34;;;;;;;4.80;4.37;;;;;;;6.68;100.00;96741.78;5041571;28;20196;-58
2023/03/21 06:10:03;;;;;;;4.27;3.97;;;;;;;7.01;100.00;96744.44;5041004;28;20288;-56
2023/03/21 06:12:33;;;;;;;5.83;3.97;;;;;;;7.18;100.00;96747.56;5040827;28;20207;-55
2023/03/21 06:15:00;;;;;;;3.80;3.50;;;;;;;7.47;100.00;96738.22;5041674;28;20221;-54
2023/03/21 06:17:27;;;;;;;3.57;3.37;;;;;;;7.82;100.00;96743.28;5044954;28;20762;-56
2023/03/21 06:19:55;;;;;;;3.93;3.63;;;;;;;7.90;100.00;96736.44;5048917;28;20203;-56
2023/03/21 06:22:21;;;;;;;4.17;3.30;;;;;;;8.01;100.00;96744.28;5041313;28;20798;-57
2023/03/21 06:24:49;;;;;;;4.50;3.67;;;;;;;8.45;100.00;96745.94;5040947;28;20211;-55
2023/03/21 06:27:16;;;;;;;3.97;3.60;;;;;;;8.97;100.00;96744.19;5040586;28;20212;-55
2023/03/21 06:29:46;;;;;;;3.80;3.03;;;;;;;9.32;98.33;96744.63;5040166;28;20274;-56
2023/03/21 06:32:13;;;;;;;3.77;3.33;;;;;;;9.72;95.18;96744.63;5041616;28;20212;-56
2023/03/21 06:34:41;;;;;;;4.63;3.13;;;;;;;10.35;92.00;96745.16;5051217;28;20211;-55
2023/03/21 06:37:09;;;;;;;3.53;2.97;;;;;;;10.76;90.34;96754.59;5055671;28;20195;-57
2023/03/21 06:39:36;;;;;;;3.40;3.10;;;;;;;11.07;88.96;96757.88;5046184;28;20207;-56
2023/03/21 06:42:02;;;;;;;9.03;8.13;;;;;;;11.91;85.07;96752.41;5042415;28;20754;-57
2023/03/21 06:44:29;;;;;;;6.07;4.33;;;;;;;11.94;82.87;96754.75;5044986;28;20211;-55
2023/03/21 06:46:57;;;;;;;3.63;3.40;;;;;;;12.47;80.13;96761.91;5045057;28;20231;-56
2023/03/21 06:49:26;;;;;;;4.07;3.10;;;;;;;12.92;79.62;96752.03;5043927;28;20199;-56
2023/03/21 06:51:53;;;;;;;3.45;3.25;;;;;;;13.03;77.16;96758.91;5026791;28;20213;-56
2023/03/21 06:54:20;;;;;;;5.50;3.80;;;;;;;13.47;74.88;96754.38;5043986;28;20199;-56
2023/03/21 06:56:47;;;;;;;3.85;3.30;;;;;;;14.18;69.20;96748.69;5045397;28;20200;-56
2023/03/21 06:59:14;;;;;;;3.03;2.83;;;;;;;14.39;68.67;96743.75;5044549;28;20222;-55
2023/03/21 07:01:41;;;;;;;4.35;3.30;;;;;;;14.07;69.83;96748.97;5044745;28;20210;-57
2023/03/21 07:04:09;;;;;;;4.00;3.03;;;;;;;14.39;70.08;96755.25;5044366;28;20223;-55
2023/03/21 07:06:37;;;;;;;3.85;3.20;;;;;;;15.24;66.05;96743.25;5044392;28;20211;-55
2023/03/21 07:09:04;;;;;;;3.70;3.33;;;;;;;14.60;67.69;96745.94;5044886;28;20207;-56
2023/03/21 07:11:31;;;;;;;4.25;3.33;;;;;;;13.47;73.31;96749.06;5044892;28;20207;-56
2023/03/21 07:13:58;;;;;;;4.80;3.50;;;;;;;12.90;73.73;96743.38;5045246;28;20212;-55
2023/03/21 07:16:24;;;;;;;6.82;3.90;;;;;;;12.07;75.34;96746.47;5045203;28;20244;-56
2023/03/21 07:18:51;;;;;;;4.07;3.60;;;;;;;12.06;80.37;96743.94;5026942;28;20677;-55
2023/03/21 07:21:21;;;;;;;4.13;3.77;;;;;;;11.32;83.94;96744.03;5051156;28;20210;-55
2023/03/21 07:23:49;;;;;;;4.37;3.93;;;;;;;11.14;85.32;96737.81;5066173;28;20250;-55
2023/03/21 07:26:17;;;;;;;4.17;3.73;;;;;;;11.21;85.70;96738.91;5062967;28;20263;-56
2023/03/21 07:28:43;;;;;;;4.97;3.90;;;;;;;11.06;86.11;96737.69;5045192;28;20282;-56
2023/03/21 07:31:18;;;;;;;5.67;4.47;;;;;;;10.89;88.66;96745.41;5044467;28;20546;-55
2023/03/21 07:33:45;;;;;;;8.40;5.50;;;;;;;10.64;88.82;96738.06;5045793;28;20226;-55
2023/03/21 07:36:15;;;;;;;7.57;5.70;;;;;;;10.68;89.33;96736.78;5045466;28;20203;-55
2023/03/21 07:38:44;;;;;;;9.40;6.20;;;;;;;10.80;88.16;96732.19;5051080;28;20200;-56
2023/03/21 07:41:11;;;;;;;6.47;5.40;;;;;;;10.86;90.10;96734.25;5059105;28;20222;-54
2023/03/21 07:43:37;;;;;;;7.97;5.10;;;;;;;10.78;90.13;96729.69;5066702;28;20220;-55
2023/03/21 07:46:05;;;;;;;6.20;5.60;;;;;;;10.78;91.28;96729.69;5066419;28;20203;-56
2023/03/21 07:48:32;;;;;;;6.50;4.70;;;;;;;10.66;90.08;96738.75;5051542;28;20245;-56
2023/03/21 07:51:01;;;;;;;5.40;4.90;;;;;;;10.57;90.07;96733.47;5055952;28;20218;-55
2023/03/21 07:53:27;;;;;;;7.30;5.10;;;;;;;10.67;89.00;96729.84;5044834;28;20191;-55
2023/03/21 07:55:56;;;;;;;6.50;4.97;;;;;;;10.72;92.09;96735.53;5044282;28;20204;-55
2023/03/21 07:58:22;;;;;;;9.50;5.50;;;;;;;10.72;88.55;96724.97;5043636;28;20212;-56
2023/03/21 08:00:49;;;;;;;6.47;5.20;;;;;;;10.70;89.06;96728.72;5043864;28;20199;-55
2023/03/21 08:03:15;;;;;;;5.57;5.07;;;;;;;10.90;92.23;96733.84;5043805;28;20224;-53
2023/03/21 08:05:43;;;;;;;5.03;4.60;;;;;;;11.01;92.11;96738.13;5044075;28;20286;-55
2023/03/21 08:08:09;;;;;;;5.23;4.73;;;;;;;11.12;88.42;96735.31;5043469;28;20199;-55
2023/03/21 08:10:36;;;;;;;5.73;4.97;;;;;;;11.26;89.55;96731.38;5044003;28;20207;-55
2023/03/21 08:13:06;;;;;;;7.50;5.00;;;;;;;11.32;88.09;96722.84;5043770;28;20196;-54
2023/03/21 08:15:32;;;;;;;5.37;4.87;;;;;;;11.39;87.94;96723.91;5043331;28;20656;-55
2023/03/21 08:17:59;;;;;;;6.20;4.30;;;;;;;11.31;86.51;96727.28;5041021;28;20247;-55
2023/03/21 08:20:26;;;;;;;5.03;4.53;;;;;;;11.27;85.41;96733.84;5042891;28;20207;-55
2023/03/21 08:22:53;;;;;;;5.20;4.70;;;;;;;11.40;87.52;96725.59;5043821;28;20232;-56
2023/03/21 08:25:22;;;;;;;5.97;4.53;;;;;;;11.49;87.72;96728.19;5043535;28;20214;-56
2023/03/21 08:27:50;;;;;;;5.00;4.57;;;;;;;11.70;88.11;96730.59;5025907;28;20210;-56
2023/03/21 08:30:20;;;;;;;4.70;4.07;;;;;;;11.84;85.32;96732.78;5043375;28;20596;-54
2023/03/21 08:32:46;;;;;;;4.93;4.43;;;;;;;11.90;85.39;96720.78;5043055;28;20210;-55
2023/03/21 08:35:15;;;;;;;4.53;4.13;;;;;;;11.87;82.50;96727.19;5042751;28;20212;-56
2023/03/21 08:37:42;;;;;;;6.47;4.73;;;;;;;11.94;83.64;96722.94;5043029;28;20214;-55
2023/03/21 08:40:12;;;;;;;4.97;4.47;;;;;;;12.05;83.91;96724.56;5042549;28;20211;-56
2023/03/21 08:42:39;;;;;;;4.37;4.07;;;;;;;12.16;82.09;96724.34;5043064;28;20231;-56
2023/03/21 08:45:07;;;;;;;4.50;4.10;;;;;;;12.35;82.16;96726.84;5043086;28;20212;-56
2023/03/21 08:47:37;;;;;;;4.77;4.30;;;;;;;12.43;81.66;96718.13;5041265;28;20191;-56
2023/03/21 08:50:06;;;;;;;4.20;3.80;;;;;;;12.63;81.30;96711.66;5043647;28;20208;-55
2023/03/21 08:52:33;;;;;;;6.37;4.63;;;;;;;12.78;79.54;96712.78;5042435;28;20219;-56
2023/03/21 08:55:02;;;;;;;5.03;4.33;;;;;;;12.97;79.96;96723.19;5042846;28;20210;-55
2023/03/21 08:57:30;;;;;;;4.60;3.73;;;;;;;13.23;79.48;96717.91;5042632;28;20274;-56
2023/03/21 08:59:57;;;;;;;5.03;4.50;;;;;;;13.15;77.23;96714.38;5033080;28;20195;-55
2023/03/21 09:02:23;;;;;;;4.20;3.90;;;;;;;13.31;76.43;96711.81;5042590;28;20204;-55
2023/03/21 09:04:53;;;;;;;4.53;4.13;;;;;;;13.46;75.41;96710.25;5042545;28;20222;-56
2023/03/21 09:07:25;;;;;;;3.83;3.47;;;;;;;13.70;75.19;96710.34;5041847;28;20206;-56
2023/03/21 09:09:53;;;;;;;3.87;3.57;;;;;;;13.84;74.17;96704.41;5042386;28;20212;-57
2023/03/21 09:12:20;;;;;;;4.37;4.07;;;;;;;14.03;73.45;96705.13;5042456;28;20219;-56
2023/03/21 09:14:46;;;;;;;5.63;4.13;;;;;;;14.23;73.85;96711.78;5041519;28;20188;-56
2023/03/21 09:17:13;;;;;;;5.23;4.00;;;;;;;14.39;72.91;96718.00;5041863;28;20282;-56
2023/03/21 09:19:41;;;;;;;5.73;4.30;;;;;;;14.51;73.43;96715.00;5042495;28;20290;-55
2023/03/21 09:22:13;;;;;;;4.83;4.10;;;;;;;14.41;72.02;96712.53;5041973;28;20202;-56
2023/03/21 09:24:40;;;;;;;6.00;4.25;;;;;;;14.49;73.90;96709.03;5042704;28;20353;-56
2023/03/21 09:27:07;;;;;;;5.90;5.30;;;;;;;14.46;72.32;96715.50;5042251;28;20282;-55
2023/03/21 09:29:34;;;;;;;7.00;4.80;;;;;;;14.51;73.73;96718.50;5042411;28;20249;-57
2023/03/21 09:32:00;;;;;;;4.83;4.53;;;;;;;14.53;74.04;96711.19;5042273;28;20617;-55
2023/03/21 09:34:27;;;;;;;3.00;2.80;;;;;;;14.39;71.32;96712.66;5041858;28;20207;-56
2023/03/21 09:36:55;;;;;;;2.70;2.45;;;;;;;14.50;72.29;96708.84;5044157;28;20279;-56
2023/03/21 09:39:25;;;;;;;3.13;2.42;;;;;;;14.52;71.24;96712.19;5051096;28;20230;-55
2023/03/21 09:42:05;;;;;;;2.58;2.47;;;;;;;14.61;71.54;96711.19;5062462;28;20234;-56
2023/03/21 09:44:40;;;;;;;2.67;2.47;;;;;;;14.59;69.43;96723.84;5062680;28;20314;-55
2023/03/21 09:47:19;;;;;;;2.67;2.58;;;;;;;14.65;70.44;96723.19;5054400;28;20219;-56
2023/03/21 09:49:50;;;;;;;2.60;2.50;;;;;;;14.67;70.62;96710.50;5049968;28;20254;-54
2023/03/21 09:52:19;;;;;;;2.40;2.30;;;;;;;14.54;69.90;96715.50;5048820;28;20208;-56
2023/03/21 09:54:48;;;;;;;2.90;2.63;;;;;;;14.67;68.57;96723.00;5046256;28;20196;-57
2023/03/21 09:57:25;;;;;;;3.20;3.00;;;;;;;14.49;68.99;96712.50;5041639;28;20235;-55
2023/03/21 09:59:53;;;;;;;3.00;2.80;;;;;;;14.41;70.17;96713.34;5043361;28;20282;-55
2023/03/21 10:02:35;;;;;;;3.65;3.10;;;;;;;14.35;70.34;96710.50;5042526;28;20208;-55
2023/03/21 10:05:08;;;;;;;3.00;2.80;;;;;;;14.42;70.29;96706.19;5041282;28;20689;-55
2023/03/21 10:07:39;;;;;;;3.00;2.80;;;;;;;14.34;71.54;96703.53;5042443;28;20530;-55
2023/03/21 10:10:10;;;;;;;3.63;2.93;;;;;;;14.44;72.09;96710.38;5046601;28;20290;-56
2023/03/21 10:12:38;;;;;;;3.20;3.00;;;;;;;14.35;68.94;96706.00;5048374;28;20206;-56
2023/03/21 10:15:11;;;;;;;3.10;2.90;;;;;;;14.55;71.21;96706.53;5045748;28;20192;-56
2023/03/21 10:17:42;;;;;;;3.95;3.10;;;;;;;14.56;70.61;96705.53;5050189;28;20245;-54
2023/03/21 10:20:13;;;;;;;3.50;3.30;;;;;;;14.51;70.00;96699.03;5051851;28;20634;-55
2023/03/21 10:22:40;;;;;;;3.20;2.90;;;;;;;14.63;69.66;96701.19;5049209;28;20215;-54
2023/03/21 10:25:12;;;;;;;2.97;2.78;;;;;;;14.82;70.17;96692.03;5048668;28;20231;-55
2023/03/21 10:27:38;;;;;;;2.95;2.75;;;;;;;14.97;67.33;96689.53;5048076;28;20218;-55
2023/03/21 10:30:06;;;;;;;3.40;3.10;;;;;;;14.89;67.57;96693.03;5047765;28;20200;-55
2023/03/21 10:32:34;;;;;;;3.30;3.05;;;;;;;15.11;68.10;96691.50;5047838;28;20226;-55
2023/03/21 10:35:02;;;;;;;3.55;3.25;;;;;;;15.27;69.56;96688.78;5047563;28;20204;-55
2023/03/21 10:37:30;;;;;;;3.53;3.22;;;;;;;15.59;67.83;96690.56;5048508;28;20214;-54
2023/03/21 10:40:00;;;;;;;3.33;3.00;;;;;;;15.69;66.76;96689.38;5049153;28;20215;-55
2023/03/21 10:42:30;;;;;;;3.55;3.28;;;;;;;15.81;64.81;96679.13;5049506;28;20215;-54
2023/03/21 10:45:00;;;;;;;3.45;3.25;;;;;;;15.81;62.76;96673.78;5049354;28;20226;-55
2023/03/21 10:47:31;;;;;;;3.30;3.05;;;;;;;15.99;64.45;96676.19;5049367;28;20207;-54
2023/03/21 10:50:02;;;;;;;2.80;2.70;;;;;;;16.14;63.50;96677.94;5048554;28;20286;-57
2023/03/21 10:52:32;;;;;;;2.80;2.60;;;;;;;16.58;65.96;96680.00;5047623;28;20624;-56
2023/03/21 10:55:11;;;;;;;3.08;2.88;;;;;;;16.95;60.67;96679.16;5048581;28;20264;-56
2023/03/21 10:57:42;;;;;;;3.00;2.80;;;;;;;17.16;62.23;96681.94;5048769;28;20194;-56
2023/03/21 11:00:19;;;;;;;3.22;2.92;;;;;;;17.42;60.45;96685.00;5048021;28;20669;-55
2023/03/21 11:02:49;;;;;;;3.28;3.05;;;;;;;17.79;60.17;96673.38;5048144;28;20539;-55
2023/03/21 11:05:21;;;;;;;3.10;2.90;;;;;;;18.05;57.31;96673.72;5047386;28;20230;-56
2023/03/21 11:07:48;;;;;;;3.20;2.80;;;;;;;17.86;58.31;96664.41;5048378;28;20285;-56
2023/03/21 11:10:16;;;;;;;3.30;3.10;;;;;;;18.00;57.49;96660.06;5048077;28;20214;-55
2023/03/21 11:12:48;;;;;;;2.70;2.60;;;;;;;18.15;56.99;96662.69;5048336;28;20210;-54
2023/03/21 11:15:27;;;;;;;3.45;3.17;;;;;;;18.26;56.72;96668.38;5048009;28;20208;-56
2023/03/21 11:17:53;;;;;;;3.20;3.00;;;;;;;18.38;59.87;96666.03;5048253;28;20377;-55
2023/03/21 11:20:21;;;;;;;3.30;3.00;;;;;;;18.41;56.67;96668.34;5047668;28;20208;-55
2023/03/21 11:22:49;;;;;;;3.35;3.10;;;;;;;18.59;56.11;96668.75;5048433;28;20639;-55
2023/03/21 11:25:22;;;;;;;3.17;2.83;;;;;;;18.76;53.45;96658.59;5048783;28;20233;-56
2023/03/21 11:27:54;;;;;;;3.03;2.75;;;;;;;19.06;52.73;96654.69;5050299;28;20195;-56
2023/03/21 11:30:22;;;;;;;3.15;2.90;;;;;;;19.12;52.31;96645.03;5048838;28;20196;-55
2023/03/21 11:32:52;;;;;;;3.25;2.95;;;;;;;19.64;51.66;96645.38;5055304;28;20206;-56
2023/03/21 11:35:28;;;;;;;2.85;2.65;;;;;;;19.43;52.69;96640.09;5059739;28;20196;-56
2023/03/21 11:37:55;;;;;;;2.72;2.60;;;;;;;19.43;51.92;96641.97;5065346;28;20204;-55
2023/03/21 11:40:24;;;;;;;2.83;2.63;;;;;;;19.52;51.34;96644.25;5067394;28;20267;-55
2023/03/21 11:42:53;;;;;;;2.70;2.50;;;;;;;19.33;53.13;96629.72;5067407;28;20204;-55
2023/03/21 11:45:22;;;;;;;2.53;2.38;;;;;;;19.38;52.64;96619.22;5044662;28;20242;-56
2023/03/21 11:47:50;;;;;;;2.70;2.50;;;;;;;19.12;52.67;96618.25;5045222;28;20226;-56
2023/03/21 11:50:20;;;;;;;2.90;2.70;;;;;;;19.05;54.34;96617.38;5044435;28;20205;-55
2023/03/21 11:52:55;;;;;;;2.78;2.47;;;;;;;19.20;54.94;96610.03;5066834;28;20203;-56
2023/03/21 11:55:37;;;;;;;2.83;2.63;;;;;;;19.31;52.93;96612.16;5064316;28;20183;-56
2023/03/21 11:58:16;;;;;;;3.35;3.15;;;;;;;19.47;52.99;96603.81;5060027;28;20211;-55